Eulalia, Pennsylvania
Current Conditions -  °F | °C
As of 3:56 PM on Friday 19 Dec 2014 (Local Time) from KELZ Reporting Station
Overcast Overcast  
Wind Chill: 13°   Ceiling: 1800
Heat Index: 24°   Visibility: 10mi
Dew Point: 19°   Wind: 12mph
Humidity: 81%   Direction: 300°WNW
Pressure: 30.1"   Gusts: NA
Location:  41.7605°N, 77.9728°W
Report Text: KELZ 192056Z AUTO 30010KT 10SM SCT012 BKN018 OVC042 M04/M07 A3010 RMK AO2 SLP224 T10441072 53012
Loading
Personal Weather Stations






























Interactive Weather Map New forecast layout! Learn more

10-Day Weather Forecast

Advertisements
Track Severe Weather on mobile